sensor_id;sensor_type;location;lat;lon;timestamp;P1;durP1;ratioP1;P2;durP2;ratioP2
68509;SDS011;55512;50.102;19.958;2023-04-28T00:02:00;23.70;;;12.70;;
68509;SDS011;55512;50.102;19.958;2023-04-28T00:04:26;22.00;;;12.60;;
68509;SDS011;55512;50.102;19.958;2023-04-28T00:06:52;23.40;;;12.10;;
68509;SDS011;55512;50.102;19.958;2023-04-28T00:09:17;22.30;;;11.90;;
68509;SDS011;55512;50.102;19.958;2023-04-28T00:11:46;19.70;;;12.00;;
68509;SDS011;55512;50.102;19.958;2023-04-28T00:14:12;22.20;;;12.90;;
68509;SDS011;55512;50.102;19.958;2023-04-28T00:16:37;24.30;;;13.10;;
68509;SDS011;55512;50.102;19.958;2023-04-28T00:19:03;23.50;;;12.90;;
68509;SDS011;55512;50.102;19.958;2023-04-28T00:21:28;21.80;;;11.40;;
68509;SDS011;55512;50.102;19.958;2023-04-28T00:23:54;21.60;;;12.40;;
68509;SDS011;55512;50.102;19.958;2023-04-28T00:26:19;26.30;;;14.10;;
68509;SDS011;55512;50.102;19.958;2023-04-28T00:28:45;25.00;;;11.90;;
68509;SDS011;55512;50.102;19.958;2023-04-28T00:31:12;21.40;;;13.20;;
68509;SDS011;55512;50.102;19.958;2023-04-28T00:33:39;21.10;;;12.50;;
68509;SDS011;55512;50.102;19.958;2023-04-28T00:36:05;21.00;;;12.00;;
68509;SDS011;55512;50.102;19.958;2023-04-28T00:38:31;19.90;;;12.10;;
68509;SDS011;55512;50.102;19.958;2023-04-28T00:40:57;21.80;;;13.00;;
68509;SDS011;55512;50.102;19.958;2023-04-28T00:43:22;21.60;;;12.60;;
68509;SDS011;55512;50.102;19.958;2023-04-28T00:45:49;21.20;;;11.80;;
68509;SDS011;55512;50.102;19.958;2023-04-28T00:48:15;19.40;;;11.50;;
68509;SDS011;55512;50.102;19.958;2023-04-28T00:50:43;21.00;;;11.30;;
68509;SDS011;55512;50.102;19.958;2023-04-28T00:53:12;18.30;;;11.10;;
68509;SDS011;55512;50.102;19.958;2023-04-28T00:55:38;21.40;;;11.00;;
68509;SDS011;55512;50.102;19.958;2023-04-28T00:58:05;21.00;;;12.40;;
68509;SDS011;55512;50.102;19.958;2023-04-28T01:00:32;20.10;;;11.50;;
68509;SDS011;55512;50.102;19.958;2023-04-28T01:02:58;22.80;;;11.90;;
68509;SDS011;55512;50.102;19.958;2023-04-28T01:05:24;19.60;;;10.30;;
68509;SDS011;55512;50.102;19.958;2023-04-28T01:07:50;15.70;;;9.10;;
68509;SDS011;55512;50.102;19.958;2023-04-28T01:10:16;14.60;;;8.60;;
68509;SDS011;55512;50.102;19.958;2023-04-28T01:12:42;17.30;;;9.50;;
68509;SDS011;55512;50.102;19.958;2023-04-28T01:15:14;19.30;;;11.10;;
68509;SDS011;55512;50.102;19.958;2023-04-28T01:17:41;18.50;;;11.20;;
68509;SDS011;55512;50.102;19.958;2023-04-28T01:20:08;23.20;;;12.60;;
68509;SDS011;55512;50.102;19.958;2023-04-28T01:22:34;18.90;;;11.00;;
68509;SDS011;55512;50.102;19.958;2023-04-28T01:24:59;19.00;;;11.70;;
68509;SDS011;55512;50.102;19.958;2023-04-28T01:27:24;19.50;;;11.50;;
68509;SDS011;55512;50.102;19.958;2023-04-28T01:29:50;18.10;;;10.50;;
68509;SDS011;55512;50.102;19.958;2023-04-28T01:32:16;24.10;;;12.20;;
68509;SDS011;55512;50.102;19.958;2023-04-28T01:34:41;19.70;;;12.40;;
68509;SDS011;55512;50.102;19.958;2023-04-28T01:37:07;20.00;;;11.60;;
68509;SDS011;55512;50.102;19.958;2023-04-28T01:39:32;21.30;;;12.50;;
68509;SDS011;55512;50.102;19.958;2023-04-28T01:41:59;20.00;;;12.20;;
68509;SDS011;55512;50.102;19.958;2023-04-28T01:44:24;20.00;;;12.30;;
68509;SDS011;55512;50.102;19.958;2023-04-28T01:46:50;20.40;;;10.50;;
68509;SDS011;55512;50.102;19.958;2023-04-28T01:49:15;20.20;;;11.80;;
68509;SDS011;55512;50.102;19.958;2023-04-28T01:51:40;19.90;;;11.60;;
68509;SDS011;55512;50.102;19.958;2023-04-28T01:54:07;18.70;;;10.90;;
68509;SDS011;55512;50.102;19.958;2023-04-28T01:56:32;20.90;;;12.40;;
68509;SDS011;55512;50.102;19.958;2023-04-28T01:58:58;22.70;;;12.00;;
68509;SDS011;55512;50.102;19.958;2023-04-28T02:01:23;18.80;;;11.00;;
68509;SDS011;55512;50.102;19.958;2023-04-28T02:03:48;19.50;;;11.80;;
68509;SDS011;55512;50.102;19.958;2023-04-28T02:06:14;20.40;;;11.80;;
68509;SDS011;55512;50.102;19.958;2023-04-28T02:08:40;19.60;;;11.40;;
68509;SDS011;55512;50.102;19.958;2023-04-28T02:11:05;20.90;;;11.50;;
68509;SDS011;55512;50.102;19.958;2023-04-28T02:13:30;21.20;;;11.00;;
68509;SDS011;55512;50.102;19.958;2023-04-28T02:15:59;20.00;;;11.10;;
68509;SDS011;55512;50.102;19.958;2023-04-28T02:18:25;20.10;;;10.60;;
68509;SDS011;55512;50.102;19.958;2023-04-28T02:20:51;19.40;;;10.80;;
68509;SDS011;55512;50.102;19.958;2023-04-28T02:23:16;19.90;;;11.00;;
68509;SDS011;55512;50.102;19.958;2023-04-28T02:25:42;17.20;;;10.20;;
68509;SDS011;55512;50.102;19.958;2023-04-28T02:28:07;19.80;;;10.80;;
68509;SDS011;55512;50.102;19.958;2023-04-28T02:30:32;21.20;;;10.80;;
68509;SDS011;55512;50.102;19.958;2023-04-28T02:32:58;18.40;;;10.60;;
68509;SDS011;55512;50.102;19.958;2023-04-28T02:35:24;18.60;;;10.60;;
68509;SDS011;55512;50.102;19.958;2023-04-28T02:37:49;17.60;;;9.50;;
68509;SDS011;55512;50.102;19.958;2023-04-28T02:40:15;21.70;;;10.00;;
68509;SDS011;55512;50.102;19.958;2023-04-28T02:42:40;18.30;;;10.00;;
68509;SDS011;55512;50.102;19.958;2023-04-28T02:45:06;17.50;;;9.50;;
68509;SDS011;55512;50.102;19.958;2023-04-28T02:47:32;17.40;;;10.00;;
68509;SDS011;55512;50.102;19.958;2023-04-28T02:49:57;18.60;;;10.10;;
68509;SDS011;55512;50.102;19.958;2023-04-28T02:52:23;16.50;;;9.70;;
68509;SDS011;55512;50.102;19.958;2023-04-28T02:54:48;23.00;;;11.50;;
68509;SDS011;55512;50.102;19.958;2023-04-28T02:57:18;20.10;;;10.80;;
68509;SDS011;55512;50.102;19.958;2023-04-28T02:59:44;19.20;;;10.70;;
68509;SDS011;55512;50.102;19.958;2023-04-28T03:02:10;22.90;;;10.20;;
68509;SDS011;55512;50.102;19.958;2023-04-28T03:04:36;19.90;;;9.80;;
68509;SDS011;55512;50.102;19.958;2023-04-28T03:07:02;19.00;;;10.30;;
68509;SDS011;55512;50.102;19.958;2023-04-28T03:09:27;19.50;;;12.10;;
68509;SDS011;55512;50.102;19.958;2023-04-28T03:11:53;23.60;;;11.80;;
68509;SDS011;55512;50.102;19.958;2023-04-28T03:14:18;19.00;;;10.40;;
68509;SDS011;55512;50.102;19.958;2023-04-28T03:16:43;22.30;;;11.30;;
68509;SDS011;55512;50.102;19.958;2023-04-28T03:19:09;21.50;;;11.30;;
68509;SDS011;55512;50.102;19.958;2023-04-28T03:21:34;21.50;;;10.40;;
68509;SDS011;55512;50.102;19.958;2023-04-28T03:24:00;19.10;;;10.40;;
68509;SDS011;55512;50.102;19.958;2023-04-28T03:26:25;20.30;;;11.00;;
68509;SDS011;55512;50.102;19.958;2023-04-28T03:28:51;18.60;;;10.60;;
68509;SDS011;55512;50.102;19.958;2023-04-28T03:31:17;16.10;;;8.80;;
68509;SDS011;55512;50.102;19.958;2023-04-28T03:33:42;17.90;;;10.70;;
68509;SDS011;55512;50.102;19.958;2023-04-28T03:36:09;23.80;;;12.10;;
68509;SDS011;55512;50.102;19.958;2023-04-28T03:38:35;23.70;;;11.30;;
68509;SDS011;55512;50.102;19.958;2023-04-28T03:41:00;21.40;;;12.10;;
68509;SDS011;55512;50.102;19.958;2023-04-28T03:43:26;19.90;;;11.40;;
68509;SDS011;55512;50.102;19.958;2023-04-28T03:45:51;23.90;;;12.90;;
68509;SDS011;55512;50.102;19.958;2023-04-28T03:48:17;23.20;;;12.60;;
68509;SDS011;55512;50.102;19.958;2023-04-28T03:50:42;23.20;;;11.40;;
68509;SDS011;55512;50.102;19.958;2023-04-28T03:53:10;21.80;;;11.70;;
68509;SDS011;55512;50.102;19.958;2023-04-28T03:55:35;20.80;;;12.00;;
68509;SDS011;55512;50.102;19.958;2023-04-28T03:58:01;23.60;;;12.60;;
68509;SDS011;55512;50.102;19.958;2023-04-28T04:00:26;22.20;;;12.60;;
68509;SDS011;55512;50.102;19.958;2023-04-28T04:02:52;20.10;;;12.70;;
68509;SDS011;55512;50.102;19.958;2023-04-28T04:05:17;21.10;;;11.60;;
68509;SDS011;55512;50.102;19.958;2023-04-28T04:07:43;22.30;;;12.30;;
68509;SDS011;55512;50.102;19.958;2023-04-28T04:10:08;24.20;;;13.00;;
68509;SDS011;55512;50.102;19.958;2023-04-28T04:12:34;19.40;;;11.10;;
68509;SDS011;55512;50.102;19.958;2023-04-28T04:15:00;22.40;;;12.10;;
68509;SDS011;55512;50.102;19.958;2023-04-28T04:17:25;21.30;;;11.70;;
68509;SDS011;55512;50.102;19.958;2023-04-28T04:19:50;20.50;;;11.90;;
68509;SDS011;55512;50.102;19.958;2023-04-28T04:22:16;22.80;;;12.40;;
68509;SDS011;55512;50.102;19.958;2023-04-28T04:24:41;21.10;;;11.60;;
68509;SDS011;55512;50.102;19.958;2023-04-28T04:27:07;23.40;;;12.00;;
68509;SDS011;55512;50.102;19.958;2023-04-28T04:29:32;23.00;;;13.60;;
68509;SDS011;55512;50.102;19.958;2023-04-28T04:31:58;23.30;;;13.80;;
68509;SDS011;55512;50.102;19.958;2023-04-28T04:34:23;24.80;;;13.50;;
68509;SDS011;55512;50.102;19.958;2023-04-28T04:36:49;23.00;;;12.50;;
68509;SDS011;55512;50.102;19.958;2023-04-28T04:39:14;26.30;;;13.10;;
68509;SDS011;55512;50.102;19.958;2023-04-28T04:41:40;25.00;;;14.20;;
68509;SDS011;55512;50.102;19.958;2023-04-28T04:44:06;25.90;;;16.10;;
68509;SDS011;55512;50.102;19.958;2023-04-28T04:46:31;26.00;;;14.40;;
68509;SDS011;55512;50.102;19.958;2023-04-28T04:48:57;23.10;;;13.20;;
68509;SDS011;55512;50.102;19.958;2023-04-28T04:51:22;24.80;;;14.20;;
68509;SDS011;55512;50.102;19.958;2023-04-28T04:53:48;27.50;;;14.00;;
68509;SDS011;55512;50.102;19.958;2023-04-28T04:56:13;25.00;;;13.60;;
68509;SDS011;55512;50.102;19.958;2023-04-28T04:58:42;25.60;;;14.20;;
68509;SDS011;55512;50.102;19.958;2023-04-28T05:01:08;27.40;;;14.20;;
68509;SDS011;55512;50.102;19.958;2023-04-28T05:03:34;27.50;;;14.90;;
68509;SDS011;55512;50.102;19.958;2023-04-28T05:05:59;26.40;;;14.20;;
68509;SDS011;55512;50.102;19.958;2023-04-28T05:08:27;25.50;;;15.00;;
68509;SDS011;55512;50.102;19.958;2023-04-28T05:10:52;27.00;;;15.10;;
68509;SDS011;55512;50.102;19.958;2023-04-28T05:13:18;29.30;;;16.30;;
68509;SDS011;55512;50.102;19.958;2023-04-28T05:15:43;24.90;;;15.20;;
68509;SDS011;55512;50.102;19.958;2023-04-28T05:18:09;24.60;;;14.60;;
68509;SDS011;55512;50.102;19.958;2023-04-28T05:20:36;25.30;;;14.10;;
68509;SDS011;55512;50.102;19.958;2023-04-28T05:23:02;24.20;;;13.70;;
68509;SDS011;55512;50.102;19.958;2023-04-28T05:25:27;23.50;;;14.00;;
68509;SDS011;55512;50.102;19.958;2023-04-28T05:27:53;23.10;;;13.20;;
68509;SDS011;55512;50.102;19.958;2023-04-28T05:30:20;27.50;;;14.10;;
68509;SDS011;55512;50.102;19.958;2023-04-28T05:32:45;24.50;;;13.80;;
68509;SDS011;55512;50.102;19.958;2023-04-28T05:35:11;28.70;;;14.10;;
68509;SDS011;55512;50.102;19.958;2023-04-28T05:37:36;26.20;;;14.00;;
68509;SDS011;55512;50.102;19.958;2023-04-28T05:40:02;23.80;;;14.00;;
68509;SDS011;55512;50.102;19.958;2023-04-28T05:42:28;26.40;;;13.80;;
68509;SDS011;55512;50.102;19.958;2023-04-28T05:44:53;22.60;;;12.90;;
68509;SDS011;55512;50.102;19.958;2023-04-28T05:47:19;23.60;;;13.50;;
68509;SDS011;55512;50.102;19.958;2023-04-28T05:49:45;26.10;;;14.00;;
68509;SDS011;55512;50.102;19.958;2023-04-28T05:52:10;24.00;;;13.60;;
68509;SDS011;55512;50.102;19.958;2023-04-28T05:54:36;24.00;;;14.20;;
68509;SDS011;55512;50.102;19.958;2023-04-28T05:57:01;21.10;;;12.30;;
68509;SDS011;55512;50.102;19.958;2023-04-28T05:59:27;21.70;;;13.00;;
68509;SDS011;55512;50.102;19.958;2023-04-28T06:01:54;22.60;;;12.50;;
68509;SDS011;55512;50.102;19.958;2023-04-28T06:04:20;25.90;;;14.20;;
68509;SDS011;55512;50.102;19.958;2023-04-28T06:06:45;23.60;;;13.90;;
68509;SDS011;55512;50.102;19.958;2023-04-28T06:09:11;22.60;;;12.20;;
68509;SDS011;55512;50.102;19.958;2023-04-28T06:11:36;21.60;;;12.20;;
68509;SDS011;55512;50.102;19.958;2023-04-28T06:14:02;20.10;;;12.00;;
68509;SDS011;55512;50.102;19.958;2023-04-28T06:16:27;23.70;;;12.10;;
68509;SDS011;55512;50.102;19.958;2023-04-28T06:18:53;21.20;;;12.30;;
68509;SDS011;55512;50.102;19.958;2023-04-28T06:21:18;23.40;;;12.30;;
68509;SDS011;55512;50.102;19.958;2023-04-28T06:23:45;21.30;;;12.00;;
68509;SDS011;55512;50.102;19.958;2023-04-28T06:26:11;22.70;;;12.40;;
68509;SDS011;55512;50.102;19.958;2023-04-28T06:28:36;19.60;;;11.40;;
68509;SDS011;55512;50.102;19.958;2023-04-28T06:31:02;29.40;;;12.50;;
68509;SDS011;55512;50.102;19.958;2023-04-28T06:33:27;24.00;;;11.00;;
68509;SDS011;55512;50.102;19.958;2023-04-28T06:35:53;18.70;;;10.90;;
68509;SDS011;55512;50.102;19.958;2023-04-28T06:38:18;19.60;;;11.00;;
68509;SDS011;55512;50.102;19.958;2023-04-28T06:40:44;19.90;;;10.80;;
68509;SDS011;55512;50.102;19.958;2023-04-28T06:43:10;17.00;;;10.90;;
68509;SDS011;55512;50.102;19.958;2023-04-28T06:45:37;21.00;;;11.80;;
68509;SDS011;55512;50.102;19.958;2023-04-28T06:48:03;18.90;;;11.00;;
68509;SDS011;55512;50.102;19.958;2023-04-28T06:50:30;22.00;;;11.60;;
68509;SDS011;55512;50.102;19.958;2023-04-28T06:52:55;18.20;;;11.30;;
68509;SDS011;55512;50.102;19.958;2023-04-28T06:55:21;16.50;;;10.30;;
68509;SDS011;55512;50.102;19.958;2023-04-28T06:57:47;17.30;;;11.00;;
68509;SDS011;55512;50.102;19.958;2023-04-28T07:00:13;19.20;;;11.00;;
68509;SDS011;55512;50.102;19.958;2023-04-28T07:02:39;15.80;;;9.40;;
68509;SDS011;55512;50.102;19.958;2023-04-28T07:05:05;15.50;;;9.50;;
68509;SDS011;55512;50.102;19.958;2023-04-28T07:07:31;17.20;;;10.20;;
68509;SDS011;55512;50.102;19.958;2023-04-28T07:09:56;21.10;;;10.20;;
68509;SDS011;55512;50.102;19.958;2023-04-28T07:12:23;18.40;;;9.30;;
68509;SDS011;55512;50.102;19.958;2023-04-28T07:14:49;16.80;;;9.30;;
68509;SDS011;55512;50.102;19.958;2023-04-28T07:17:15;15.30;;;8.70;;
68509;SDS011;55512;50.102;19.958;2023-04-28T07:19:40;15.90;;;8.70;;
68509;SDS011;55512;50.102;19.958;2023-04-28T07:22:06;15.70;;;9.30;;
68509;SDS011;55512;50.102;19.958;2023-04-28T07:24:32;16.20;;;9.20;;
68509;SDS011;55512;50.102;19.958;2023-04-28T07:26:57;16.00;;;9.20;;
68509;SDS011;55512;50.102;19.958;2023-04-28T07:29:23;15.00;;;8.30;;
68509;SDS011;55512;50.102;19.958;2023-04-28T07:31:48;18.40;;;9.10;;
68509;SDS011;55512;50.102;19.958;2023-04-28T07:34:14;13.10;;;7.40;;
68509;SDS011;55512;50.102;19.958;2023-04-28T07:36:40;14.20;;;6.90;;
68509;SDS011;55512;50.102;19.958;2023-04-28T07:39:06;16.30;;;8.70;;
68509;SDS011;55512;50.102;19.958;2023-04-28T07:41:36;16.10;;;9.60;;
68509;SDS011;55512;50.102;19.958;2023-04-28T07:44:03;14.60;;;8.00;;
68509;SDS011;55512;50.102;19.958;2023-04-28T07:46:30;12.70;;;7.20;;
68509;SDS011;55512;50.102;19.958;2023-04-28T07:48:56;12.80;;;6.70;;
68509;SDS011;55512;50.102;19.958;2023-04-28T07:51:21;16.30;;;7.60;;
68509;SDS011;55512;50.102;19.958;2023-04-28T07:53:47;15.70;;;6.70;;
68509;SDS011;55512;50.102;19.958;2023-04-28T07:56:12;11.90;;;5.30;;
68509;SDS011;55512;50.102;19.958;2023-04-28T07:58:38;10.90;;;5.40;;
68509;SDS011;55512;50.102;19.958;2023-04-28T08:01:03;12.10;;;5.30;;
68509;SDS011;55512;50.102;19.958;2023-04-28T08:03:29;8.70;;;5.20;;
68509;SDS011;55512;50.102;19.958;2023-04-28T08:05:55;11.10;;;5.90;;
68509;SDS011;55512;50.102;19.958;2023-04-28T08:08:21;10.10;;;5.70;;
68509;SDS011;55512;50.102;19.958;2023-04-28T08:10:46;8.80;;;5.00;;
68509;SDS011;55512;50.102;19.958;2023-04-28T08:13:13;13.50;;;5.50;;
68509;SDS011;55512;50.102;19.958;2023-04-28T08:15:41;10.50;;;5.20;;
68509;SDS011;55512;50.102;19.958;2023-04-28T08:18:06;9.20;;;4.90;;
68509;SDS011;55512;50.102;19.958;2023-04-28T08:20:32;12.10;;;6.10;;
68509;SDS011;55512;50.102;19.958;2023-04-28T08:22:58;12.30;;;5.70;;
68509;SDS011;55512;50.102;19.958;2023-04-28T08:25:24;11.20;;;5.40;;
68509;SDS011;55512;50.102;19.958;2023-04-28T08:27:50;9.70;;;5.80;;
68509;SDS011;55512;50.102;19.958;2023-04-28T08:30:16;8.60;;;4.60;;
68509;SDS011;55512;50.102;19.958;2023-04-28T08:32:41;8.60;;;4.50;;
68509;SDS011;55512;50.102;19.958;2023-04-28T08:35:07;10.40;;;5.20;;
68509;SDS011;55512;50.102;19.958;2023-04-28T08:37:32;8.60;;;4.50;;
68509;SDS011;55512;50.102;19.958;2023-04-28T08:39:58;9.60;;;5.10;;
68509;SDS011;55512;50.102;19.958;2023-04-28T08:42:29;12.70;;;5.40;;
68509;SDS011;55512;50.102;19.958;2023-04-28T08:44:57;15.50;;;5.00;;
68509;SDS011;55512;50.102;19.958;2023-04-28T08:47:32;10.70;;;4.70;;
68509;SDS011;55512;50.102;19.958;2023-04-28T08:50:04;7.00;;;3.50;;
68509;SDS011;55512;50.102;19.958;2023-04-28T08:52:31;9.40;;;4.60;;
68509;SDS011;55512;50.102;19.958;2023-04-28T08:54:58;12.20;;;3.90;;
68509;SDS011;55512;50.102;19.958;2023-04-28T08:57:29;9.70;;;4.70;;
68509;SDS011;55512;50.102;19.958;2023-04-28T09:00:08;8.00;;;3.90;;
68509;SDS011;55512;50.102;19.958;2023-04-28T09:02:35;7.80;;;4.00;;
68509;SDS011;55512;50.102;19.958;2023-04-28T09:05:05;7.60;;;3.50;;
68509;SDS011;55512;50.102;19.958;2023-04-28T09:07:31;8.60;;;3.70;;
68509;SDS011;55512;50.102;19.958;2023-04-28T09:10:26;7.70;;;3.80;;
68509;SDS011;55512;50.102;19.958;2023-04-28T09:12:53;7.10;;;3.40;;
68509;SDS011;55512;50.102;19.958;2023-04-28T09:15:37;8.50;;;4.00;;
68509;SDS011;55512;50.102;19.958;2023-04-28T09:18:06;8.40;;;4.00;;
68509;SDS011;55512;50.102;19.958;2023-04-28T09:20:34;9.50;;;4.70;;
68509;SDS011;55512;50.102;19.958;2023-04-28T09:23:18;7.90;;;3.80;;
68509;SDS011;55512;50.102;19.958;2023-04-28T09:26:04;7.70;;;3.60;;
68509;SDS011;55512;50.102;19.958;2023-04-28T09:28:32;7.80;;;3.80;;
68509;SDS011;55512;50.102;19.958;2023-04-28T09:30:59;8.30;;;4.10;;
68509;SDS011;55512;50.102;19.958;2023-04-28T09:33:25;7.80;;;3.80;;
68509;SDS011;55512;50.102;19.958;2023-04-28T09:35:51;9.80;;;3.80;;
68509;SDS011;55512;50.102;19.958;2023-04-28T09:38:19;7.30;;;3.60;;
68509;SDS011;55512;50.102;19.958;2023-04-28T09:40:53;9.50;;;4.10;;
68509;SDS011;55512;50.102;19.958;2023-04-28T09:43:26;7.60;;;3.40;;
68509;SDS011;55512;50.102;19.958;2023-04-28T09:45:54;7.20;;;3.80;;
68509;SDS011;55512;50.102;19.958;2023-04-28T09:48:29;9.20;;;3.90;;
68509;SDS011;55512;50.102;19.958;2023-04-28T09:50:56;8.80;;;4.20;;
68509;SDS011;55512;50.102;19.958;2023-04-28T09:53:24;8.00;;;4.10;;
68509;SDS011;55512;50.102;19.958;2023-04-28T09:55:55;8.10;;;3.80;;
68509;SDS011;55512;50.102;19.958;2023-04-28T09:58:23;8.80;;;4.50;;
68509;SDS011;55512;50.102;19.958;2023-04-28T10:00:52;7.50;;;3.80;;
68509;SDS011;55512;50.102;19.958;2023-04-28T10:03:24;6.70;;;3.90;;
68509;SDS011;55512;50.102;19.958;2023-04-28T10:05:51;10.20;;;4.20;;
68509;SDS011;55512;50.102;19.958;2023-04-28T10:08:20;8.90;;;4.30;;
68509;SDS011;55512;50.102;19.958;2023-04-28T10:10:50;14.90;;;5.40;;
68509;SDS011;55512;50.102;19.958;2023-04-28T10:13:21;6.60;;;3.30;;
68509;SDS011;55512;50.102;19.958;2023-04-28T10:15:50;9.40;;;4.40;;
68509;SDS011;55512;50.102;19.958;2023-04-28T10:18:21;7.80;;;4.10;;
68509;SDS011;55512;50.102;19.958;2023-04-28T10:20:51;8.30;;;4.20;;
68509;SDS011;55512;50.102;19.958;2023-04-28T10:26:12;10.70;;;4.30;;
68509;SDS011;55512;50.102;19.958;2023-04-28T10:28:46;8.60;;;4.30;;
68509;SDS011;55512;50.102;19.958;2023-04-28T10:31:16;14.00;;;5.00;;
68509;SDS011;55512;50.102;19.958;2023-04-28T10:33:45;15.20;;;5.40;;
68509;SDS011;55512;50.102;19.958;2023-04-28T10:39:17;7.70;;;4.20;;
68509;SDS011;55512;50.102;19.958;2023-04-28T10:41:44;7.10;;;4.20;;
68509;SDS011;55512;50.102;19.958;2023-04-28T10:47:10;9.00;;;3.90;;
68509;SDS011;55512;50.102;19.958;2023-04-28T11:00:41;8.20;;;4.20;;
68509;SDS011;55512;50.102;19.958;2023-04-28T11:06:23;7.40;;;4.00;;
68509;SDS011;55512;50.102;19.958;2023-04-28T11:11:39;7.50;;;3.90;;
68509;SDS011;55512;50.102;19.958;2023-04-28T11:17:04;8.00;;;4.00;;
68509;SDS011;55512;50.102;19.958;2023-04-28T11:19:33;9.30;;;4.60;;
68509;SDS011;55512;50.102;19.958;2023-04-28T11:22:05;8.70;;;3.80;;
68509;SDS011;55512;50.102;19.958;2023-04-28T11:24:37;10.50;;;4.40;;
68509;SDS011;55512;50.102;19.958;2023-04-28T11:27:04;6.90;;;4.00;;
68509;SDS011;55512;50.102;19.958;2023-04-28T11:29:37;8.50;;;3.40;;
68509;SDS011;55512;50.102;19.958;2023-04-28T11:32:05;8.60;;;4.00;;
68509;SDS011;55512;50.102;19.958;2023-04-28T11:34:32;8.60;;;3.30;;
68509;SDS011;55512;50.102;19.958;2023-04-28T11:36:58;4.30;;;1.80;;
68509;SDS011;55512;50.102;19.958;2023-04-28T11:39:29;7.00;;;3.40;;
68509;SDS011;55512;50.102;19.958;2023-04-28T11:41:58;10.60;;;4.00;;
68509;SDS011;55512;50.102;19.958;2023-04-28T11:44:27;13.00;;;4.50;;
68509;SDS011;55512;50.102;19.958;2023-04-28T11:46:59;12.90;;;4.30;;
68509;SDS011;55512;50.102;19.958;2023-04-28T11:49:30;6.90;;;3.30;;
68509;SDS011;55512;50.102;19.958;2023-04-28T11:52:06;6.40;;;2.90;;
68509;SDS011;55512;50.102;19.958;2023-04-28T11:54:33;8.60;;;3.60;;
68509;SDS011;55512;50.102;19.958;2023-04-28T11:56:59;6.40;;;3.60;;
68509;SDS011;55512;50.102;19.958;2023-04-28T11:59:29;8.90;;;3.80;;
68509;SDS011;55512;50.102;19.958;2023-04-28T12:01:58;8.20;;;3.10;;
68509;SDS011;55512;50.102;19.958;2023-04-28T12:04:27;11.20;;;3.50;;
68509;SDS011;55512;50.102;19.958;2023-04-28T12:07:00;8.20;;;3.20;;
68509;SDS011;55512;50.102;19.958;2023-04-28T12:09:29;8.20;;;3.40;;
68509;SDS011;55512;50.102;19.958;2023-04-28T12:12:00;7.20;;;3.40;;
68509;SDS011;55512;50.102;19.958;2023-04-28T12:14:27;6.90;;;2.30;;
68509;SDS011;55512;50.102;19.958;2023-04-28T12:16:54;9.40;;;4.40;;
68509;SDS011;55512;50.102;19.958;2023-04-28T12:19:21;10.60;;;3.90;;
68509;SDS011;55512;50.102;19.958;2023-04-28T12:22:05;8.50;;;3.80;;
68509;SDS011;55512;50.102;19.958;2023-04-28T12:24:32;8.10;;;3.10;;
68509;SDS011;55512;50.102;19.958;2023-04-28T12:27:15;9.50;;;3.90;;
68509;SDS011;55512;50.102;19.958;2023-04-28T12:29:44;8.20;;;3.90;;
68509;SDS011;55512;50.102;19.958;2023-04-28T12:32:13;8.20;;;3.50;;
68509;SDS011;55512;50.102;19.958;2023-04-28T12:34:40;13.90;;;4.50;;
68509;SDS011;55512;50.102;19.958;2023-04-28T12:37:07;8.10;;;3.70;;
68509;SDS011;55512;50.102;19.958;2023-04-28T12:39:34;8.40;;;3.90;;
68509;SDS011;55512;50.102;19.958;2023-04-28T12:42:01;7.70;;;3.10;;
68509;SDS011;55512;50.102;19.958;2023-04-28T12:44:37;8.00;;;3.20;;
68509;SDS011;55512;50.102;19.958;2023-04-28T12:47:07;5.80;;;2.70;;
68509;SDS011;55512;50.102;19.958;2023-04-28T12:49:35;9.40;;;3.40;;
68509;SDS011;55512;50.102;19.958;2023-04-28T12:52:01;7.80;;;3.80;;
68509;SDS011;55512;50.102;19.958;2023-04-28T12:54:27;11.00;;;3.80;;
68509;SDS011;55512;50.102;19.958;2023-04-28T12:56:53;9.10;;;3.80;;
68509;SDS011;55512;50.102;19.958;2023-04-28T12:59:19;8.20;;;3.50;;
68509;SDS011;55512;50.102;19.958;2023-04-28T13:01:45;8.90;;;3.70;;
68509;SDS011;55512;50.102;19.958;2023-04-28T13:04:11;7.10;;;3.70;;
68509;SDS011;55512;50.102;19.958;2023-04-28T13:06:37;7.00;;;3.80;;
68509;SDS011;55512;50.102;19.958;2023-04-28T13:09:04;9.50;;;3.90;;
68509;SDS011;55512;50.102;19.958;2023-04-28T13:11:30;8.90;;;3.50;;
68509;SDS011;55512;50.102;19.958;2023-04-28T13:13:56;7.80;;;3.50;;
68509;SDS011;55512;50.102;19.958;2023-04-28T13:16:22;10.60;;;3.60;;
68509;SDS011;55512;50.102;19.958;2023-04-28T13:18:53;9.60;;;3.50;;
68509;SDS011;55512;50.102;19.958;2023-04-28T13:21:21;9.80;;;4.00;;
68509;SDS011;55512;50.102;19.958;2023-04-28T13:23:48;16.90;;;9.30;;
68509;SDS011;55512;50.102;19.958;2023-04-28T13:26:13;39.20;;;21.70;;
68509;SDS011;55512;50.102;19.958;2023-04-28T13:28:39;11.10;;;5.90;;
68509;SDS011;55512;50.102;19.958;2023-04-28T13:31:04;8.80;;;4.60;;
68509;SDS011;55512;50.102;19.958;2023-04-28T13:33:30;7.70;;;4.10;;
68509;SDS011;55512;50.102;19.958;2023-04-28T13:35:57;9.70;;;4.80;;
68509;SDS011;55512;50.102;19.958;2023-04-28T13:38:23;7.70;;;3.90;;
68509;SDS011;55512;50.102;19.958;2023-04-28T13:40:50;9.80;;;4.00;;
68509;SDS011;55512;50.102;19.958;2023-04-28T13:43:16;7.30;;;3.80;;
68509;SDS011;55512;50.102;19.958;2023-04-28T13:45:42;7.50;;;3.60;;
68509;SDS011;55512;50.102;19.958;2023-04-28T13:48:08;10.80;;;3.70;;
68509;SDS011;55512;50.102;19.958;2023-04-28T13:50:33;9.80;;;4.20;;
68509;SDS011;55512;50.102;19.958;2023-04-28T13:52:59;15.20;;;5.10;;
68509;SDS011;55512;50.102;19.958;2023-04-28T13:55:24;8.60;;;4.30;;
68509;SDS011;55512;50.102;19.958;2023-04-28T13:57:53;11.00;;;4.30;;
68509;SDS011;55512;50.102;19.958;2023-04-28T14:00:19;6.80;;;3.60;;
68509;SDS011;55512;50.102;19.958;2023-04-28T14:02:45;8.90;;;3.70;;
68509;SDS011;55512;50.102;19.958;2023-04-28T14:05:13;6.80;;;3.80;;
68509;SDS011;55512;50.102;19.958;2023-04-28T14:07:41;8.30;;;4.00;;
68509;SDS011;55512;50.102;19.958;2023-04-28T14:10:07;27.60;;;6.10;;
68509;SDS011;55512;50.102;19.958;2023-04-28T14:12:33;20.10;;;5.00;;
68509;SDS011;55512;50.102;19.958;2023-04-28T14:14:58;8.60;;;4.40;;
68509;SDS011;55512;50.102;19.958;2023-04-28T14:17:24;8.40;;;4.40;;
68509;SDS011;55512;50.102;19.958;2023-04-28T14:19:49;8.00;;;4.50;;
68509;SDS011;55512;50.102;19.958;2023-04-28T14:22:15;9.10;;;4.70;;
68509;SDS011;55512;50.102;19.958;2023-04-28T14:24:41;8.90;;;4.40;;
68509;SDS011;55512;50.102;19.958;2023-04-28T14:27:07;8.60;;;4.10;;
68509;SDS011;55512;50.102;19.958;2023-04-28T14:29:33;9.30;;;4.10;;
68509;SDS011;55512;50.102;19.958;2023-04-28T14:31:59;9.00;;;3.70;;
68509;SDS011;55512;50.102;19.958;2023-04-28T14:34:25;8.70;;;3.70;;
68509;SDS011;55512;50.102;19.958;2023-04-28T14:36:50;8.60;;;4.70;;
68509;SDS011;55512;50.102;19.958;2023-04-28T14:39:16;9.50;;;4.20;;
68509;SDS011;55512;50.102;19.958;2023-04-28T14:41:42;8.70;;;4.60;;
68509;SDS011;55512;50.102;19.958;2023-04-28T14:44:07;9.30;;;4.80;;
68509;SDS011;55512;50.102;19.958;2023-04-28T14:46:35;8.90;;;4.50;;
68509;SDS011;55512;50.102;19.958;2023-04-28T14:49:00;8.40;;;4.50;;